KMKC

Charles B Wheeler Downtown Airport

Kansas City, Missouri, USA
KMKC 260520Z 2606/2706 29006KT P6SM SCT250 FM270500 34007KT P6SM FEW200
Issued Valid From Valid To
Apr-26 @ 05:20 UTC
(36 minutes ago)
Apr-26 @ 06:00 UTC
(in 4 minutes)
Apr-27 @ 06:00 UTC
(in 24 hours)
Apr-26 @ 06:00 to Apr-27 @ 05:00
KMKC 260520Z 2606/2706 29006KT P6SM SCT250
Wind Visibility Clouds
290° at 6 knots Greater than 6 miles
  • Scattered at 25,000' AGL
From Apr-27 @ 05:00 to Apr-27 @ 06:00
FM270500 34007KT P6SM FEW200
Wind Visibility Clouds
340° at 7 knots Greater than 6 miles
  • Few at 20,000' AGL
KMKC 260520Z 2606/2706 29006KT P6SM SCT250 FM270500 34007KT P6SM FEW200
Issued Apr-26 @ 05:20 UTC
(36 minutes ago)
Valid From Apr-26 @ 06:00 UTC
(in 4 minutes)
Valid To Apr-27 @ 06:00 UTC
(in 24 hours)
Apr-26 @ 06:00 - Apr-27 @ 05:00
Wind Visibility
290° at 6 knots Greater than 6 miles
Clouds
  • Scattered at 25,000' AGL
From Apr-27 @ 05:00 - Apr-27 @ 06:00
Wind Visibility
340° at 7 knots Greater than 6 miles
Clouds
  • Few at 20,000' AGL